Impacts TAF Board
For situational awareness. Not to be used for flight planning purposes.
IDs:

KMIA - Miami Intl, FL, US

Issued at 0520 UTC 23 Oct 2018
Updated at 0745 UTC 23 Oct 2018
Potential Impact None Slight Moderate High
Time<<24/08Z 24/09Z 24/10Z 24/11Z 24/12Z 24/13Z 24/14Z 24/15Z 24/16Z 24/17Z 24/18Z 24/19Z 24/20Z
Type PRVL PRVL PRVL PRVL
VIS >6 >6 >6 >6
CIG 250 250 250 250
Cover BKN BKN BKN BKN
FltCat VFR VFR VFR VFR
WX -- -- -- --
WDir VRB VRB VRB VRB
WSpd 3 3 3 3
WGst -- -- -- --
Raw TAF
KMIA 230520Z 2306/2412 06007KT P6SM SCT040
  FM231600 10010KT P6SM SCT025 BKN035
  FM240200 VRB03KT P6SM SCT035 BKN250


METAR Board
Radar Display
Forecast Discussion
For situational awareness. Not to be used for flight planning purposes.